17 mai 2022

Temps Code Temps Temp. Vue Des nuages Vent METAR/SPECI
16:00
V
30 °C 10 km+ - Var   Var 3 kt METAR LFSL 171400Z AUTO VRB03KT CAVOK 30/15 Q1018 TEMPO SCT060TCU
15:30
V
30 °C 10 km+ - Var   Var 3 kt METAR LFSL 171330Z AUTO VRB03KT CAVOK 30/14 Q1018 TEMPO SCT060TCU
15:00
V
30 °C 10 km+ - Var   Var 3 kt METAR LFSL 171300Z AUTO VRB03KT CAVOK 30/13 Q1018 TEMPO SCT060TCU
14:30
V
30 °C 10 km+ - Var   Var 4 kt METAR LFSL 171230Z AUTO VRB04KT CAVOK 30/11 Q1018 TEMPO SCT060TCU
14:00
V
29 °C 10 km+ - Var   Var 3 kt METAR LFSL 171200Z AUTO VRB03KT CAVOK 29/13 Q1018 TEMPO SCT060TCU
13:30
V
28 °C 10 km+ - 110°   110° 4 kt METAR LFSL 171130Z AUTO 11004KT 020V180 CAVOK 28/13 Q1019 TEMPO SCT060TCU
13:00
V
27 °C 10 km+ - 120°   120° 4 kt METAR LFSL 171100Z AUTO 12004KT 080V160 CAVOK 27/13 Q1019 NOSIG
12:30
V
27 °C 10 km+ - 090°   090° 5 kt METAR LFSL 171030Z AUTO 09005KT 030V130 CAVOK 27/13 Q1019 NOSIG
12:00
V
26 °C 10 km+ - 090°   090° 4 kt METAR LFSL 171000Z AUTO 09004KT 050V130 CAVOK 26/13 Q1019 NOSIG
11:30
V
25 °C 10 km+ - 100°   100° 4 kt METAR LFSL 170930Z AUTO 10004KT 060V140 CAVOK 25/13 Q1019 NOSIG
11:00
V
24 °C 10 km+ - 130°   130° 5 kt METAR LFSL 170900Z AUTO 13005KT 100V160 CAVOK 24/14 Q1019 NOSIG
10:30
V
23 °C 10 km+ - 110°   110° 7 kt METAR LFSL 170830Z AUTO 11007KT 090V150 CAVOK 23/14 Q1019 NOSIG
10:00
V
22 °C 10 km+ - 140°   140° 7 kt METAR LFSL 170800Z AUTO 14007KT 110V180 CAVOK 22/13 Q1019 NOSIG
09:30
V
20 °C 10 km+ - 120°   120° 7 kt METAR LFSL 170730Z AUTO 12007KT 100V160 CAVOK 20/14 Q1019 NOSIG
09:00
V
19 °C 10 km+ - 120°   120° 5 kt METAR LFSL 170700Z AUTO 12005KT 100V170 CAVOK 19/14 Q1019 NOSIG
08:30
V
18 °C 10 km+ - 120°   120° 5 kt METAR LFSL 170630Z AUTO 12005KT CAVOK 18/14 Q1019 NOSIG
08:00
V
16 °C 10 km+ - 120°   120° 3 kt METAR LFSL 170600Z AUTO 12003KT CAVOK 16/14 Q1019 NOSIG
07:30
V
13 °C 10 km+ - Var   Var 1 kt METAR LFSL 170530Z AUTO VRB01KT CAVOK 13/13 Q1019 NOSIG
07:00
V
12 °C 10 km+ - Var   000° 0 kt METAR LFSL 170500Z AUTO 00000KT CAVOK 12/12 Q1019 NOSIG
06:30
V
12 °C 10 km+ - Var   000° 0 kt METAR LFSL 170430Z AUTO 00000KT CAVOK 12/11 Q1019 NOSIG
06:00
V
12 °C 10 km+ - Var   000° 0 kt METAR LFSL 170400Z AUTO 00000KT CAVOK 12/11 Q1019 NOSIG
05:30
V
12 °C 10 km+ - Var   000° 0 kt METAR LFSL 170330Z AUTO 00000KT CAVOK 12/12 Q1019 NOSIG
05:00
V
12 °C 10 km+ - Var   000° 0 kt METAR LFSL 170300Z AUTO 00000KT CAVOK 12/12 Q1019 NOSIG
04:30
V
13 °C 10 km+ - Var   000° 0 kt METAR LFSL 170230Z AUTO 00000KT CAVOK 13/12 Q1019 NOSIG
04:00
V
13 °C 10 km+ - Var   000° 0 kt METAR LFSL 170200Z AUTO 00000KT CAVOK 13/12 Q1019
03:30
V
13 °C 10 km+ - Var   000° 0 kt METAR LFSL 170130Z AUTO 00000KT CAVOK 13/12 Q1019
03:00
V
13 °C 10 km+ - Var   000° 0 kt METAR LFSL 170100Z AUTO 00000KT CAVOK 13/13 Q1020
02:30
V
14 °C 10 km+ - Var   000° 0 kt METAR LFSL 170030Z AUTO 00000KT CAVOK 14/13 Q1020
02:00
V
14 °C 10 km+ - Var   000° 0 kt METAR LFSL 170000Z AUTO 00000KT CAVOK 14/13 Q1020
01:30
V
15 °C 10 km+ - Var   000° 0 kt METAR LFSL 162330Z AUTO 00000KT CAVOK 15/14 Q1020
01:00
V
15 °C 10 km+ - Var   000° 0 kt METAR LFSL 162300Z AUTO 00000KT CAVOK 15/14 Q1020
00:30
V
15 °C 10 km+ - Var   000° 0 kt METAR LFSL 162230Z AUTO 00000KT CAVOK 15/14 Q1020
00:00
V
16 °C 10 km+ - Var   000° 0 kt METAR LFSL 162200Z AUTO 00000KT CAVOK 16/14 Q1020

16 mai 2022

Temps Code Temps Temp. Vue Des nuages Vent METAR/SPECI
23:30
V
16 °C 10 km+ - Var   000° 0 kt METAR LFSL 162130Z AUTO 00000KT CAVOK 16/15 Q1020
23:00
V
17 °C 10 km+ - Var   000° 0 kt METAR LFSL 162100Z AUTO 00000KT CAVOK 17/15 Q1020
22:30
V
17 °C 10 km+ - Var   000° 0 kt METAR LFSL 162030Z AUTO 00000KT CAVOK 17/16 Q1020
22:00
V
18 °C 10 km+ - 240°   240° 1 kt METAR LFSL 162000Z AUTO 24001KT CAVOK 18/16 Q1020 NOSIG
21:30
V
20 °C 10 km+ - Var   000° 0 kt METAR LFSL 161930Z AUTO 00000KT CAVOK 20/17 Q1019 NOSIG
21:00
V
22 °C 10 km+ - Var   000° 0 kt METAR LFSL 161900Z AUTO 00000KT CAVOK 22/17 Q1019 NOSIG
20:30
V
24 °C 10 km+ - Var   Var 3 kt METAR LFSL 161830Z AUTO VRB03KT CAVOK 24/17 Q1019 NOSIG
20:00
V
25 °C 10 km+ - 320°   320° 5 kt METAR LFSL 161800Z AUTO 32005KT CAVOK 25/15 Q1019 NOSIG
19:30
V
25 °C 10 km+ - 300°   300° 3 kt METAR LFSL 161730Z AUTO 30003KT 270V330 CAVOK 25/15 Q1019 NOSIG
19:00
V
26 °C 10 km+ - Var   Var 3 kt METAR LFSL 161700Z AUTO VRB03KT CAVOK 26/15 Q1019 NOSIG
18:30
V
26 °C 10 km+ - Var   Var 2 kt METAR LFSL 161630Z AUTO VRB02KT CAVOK 26/14 Q1019 NOSIG
18:00
V
26 °C 10 km+ - Var   Var 3 kt METAR LFSL 161600Z AUTO VRB03KT CAVOK 26/14 Q1019 NOSIG
17:30
V
26 °C 10 km+ - 250°   250° 3 kt METAR LFSL 161530Z AUTO 25003KT 150V300 CAVOK 26/13 Q1019 NOSIG
17:00
V
26 °C 10 km+ - 250°   250° 4 kt METAR LFSL 161500Z AUTO 25004KT 200V300 CAVOK 26/15 Q1019 NOSIG
16:30
V
26 °C 10 km+ - 210°   210° 4 kt METAR LFSL 161430Z AUTO 21004KT 150V270 9999 FEW049 26/14 Q1019 NOSIG
16:00
V
26 °C 10 km+ - 200°   200° 5 kt METAR LFSL 161400Z AUTO 20005KT 140V300 CAVOK 26/14 Q1019 NOSIG
15:30
V
26 °C 10 km+ - Var   Var 4 kt METAR LFSL 161330Z AUTO VRB04KT CAVOK 26/15 Q1020 NOSIG
15:00
V
26 °C 10 km+ - 210°   210° 4 kt METAR LFSL 161300Z AUTO 21004KT 150V290 CAVOK 26/14 Q1020 NOSIG
14:30
V
26 °C 10 km+ - Var   Var 3 kt METAR LFSL 161230Z AUTO VRB03KT CAVOK 26/14 Q1020 NOSIG
14:00
V
25 °C 10 km+ - Var   Var 3 kt METAR LFSL 161200Z AUTO VRB03KT CAVOK 25/14 Q1020 NOSIG
13:30
V
24 °C 10 km+ - Var   Var 3 kt METAR LFSL 161130Z AUTO VRB03KT CAVOK 24/13 Q1020 NOSIG
13:00
V
23 °C 10 km+ - 130°   130° 3 kt METAR LFSL 161100Z AUTO 13003KT 080V230 CAVOK 23/14 Q1020 NOSIG
12:30
V
22 °C 10 km+ - 170°   170° 4 kt METAR LFSL 161030Z AUTO 17004KT 110V220 CAVOK 22/12 Q1020 NOSIG
12:00
V
22 °C 10 km+ - 200°   200° 4 kt METAR LFSL 161000Z AUTO 20004KT 160V290 CAVOK 22/13 Q1020 NOSIG
11:30
V
21 °C 10 km+ - 140°   140° 5 kt METAR LFSL 160930Z AUTO 14005KT 100V200 CAVOK 21/12 Q1020 NOSIG
11:00
V
20 °C 10 km+ - 140°   140° 5 kt METAR LFSL 160900Z AUTO 14005KT 110V200 CAVOK 20/12 Q1020 NOSIG
10:30
V
19 °C 10 km+ - 180°   180° 5 kt METAR LFSL 160830Z AUTO 18005KT 140V230 CAVOK 19/11 Q1020 NOSIG
10:00
V
19 °C 10 km+ - 170°   170° 5 kt METAR LFSL 160800Z AUTO 17005KT 110V240 CAVOK 19/12 Q1020 NOSIG
09:30
V
18 °C 10 km+ - 150°   150° 5 kt METAR LFSL 160730Z AUTO 15005KT CAVOK 18/12 Q1020 NOSIG
09:00
V
18 °C 10 km+ - 140°   140° 4 kt METAR LFSL 160700Z AUTO 14004KT 110V180 CAVOK 18/14 Q1020 NOSIG
08:30
V
17 °C 10 km+ - 100°   100° 4 kt METAR LFSL 160630Z AUTO 10004KT CAVOK 17/14 Q1019 NOSIG
08:00
V
16 °C 10 km+ - Var   Var 3 kt METAR LFSL 160600Z AUTO VRB03KT 9999 FEW001 16/15 Q1019 NOSIG
07:30
L
15 °C 10 km+ - Var   Var 3 kt METAR LFSL 160530Z AUTO VRB03KT 9999 VV/// 15/15 Q1018 BECMG NSC
07:00
L
15 °C 800 m - Var   Var 3 kt METAR LFSL 160500Z AUTO VRB03KT 0900 0800 R29/1200U FG VV/// 15/14 Q1018 BECMG CAVOK
06:30
V
15 °C 10 km+ - 150°   150° 3 kt METAR LFSL 160430Z AUTO 15003KT 130V190 9999 FEW002 15/14 Q1018 NOSIG
06:00
V
15 °C 10 km+ - 120°   120° 5 kt METAR LFSL 160400Z AUTO 12005KT 9999 FEW002 SCT230 15/15 Q1017 NOSIG
05:30
V
15 °C 10 km+ - 120°   120° 4 kt METAR LFSL 160330Z AUTO 12004KT CAVOK 15/15 Q1017 NOSIG
05:00
V
15 °C 10 km+ - 130°   130° 5 kt METAR LFSL 160300Z AUTO 13005KT 100V180 9999 ///CB 15/15 Q1018 BECMG NSC
04:00
V
15 °C 10 km+ - Var   Var 1 kt METAR LFSL 160200Z AUTO VRB01KT 9999 ///CB 15/15 Q1018
03:30
V
15 °C 10 km+ - 150°   150° 3 kt METAR LFSL 160130Z AUTO 15003KT 130V190 9999 ///CB 15/15 Q1018
03:00
V
16 °C 10 km+ - 110°   110° 3 kt METAR LFSL 160100Z AUTO 11003KT CAVOK 16/15 Q1018
02:30
V
16 °C 10 km+ - 300°   300° 6 kt METAR LFSL 160030Z AUTO 30006KT 260V320 CAVOK 16/15 Q1018
02:00
V
16 °C 10 km+ - Var   Var 2 kt METAR LFSL 160000Z AUTO VRB02KT CAVOK 16/15 Q1017
01:30
V
16 °C 10 km+ - 360°   360° 2 kt METAR LFSL 152330Z AUTO 36002KT 9999 //////TCU 16/15 Q1017
01:00
V
16 °C 10 km+ 18.000 ft 280°   280° 6 kt METAR LFSL 152300Z AUTO 28006KT 150V300 9999 FEW014/// SCT150/// BKN180/// //////CB 16/15 Q1017
00:30
V
17 °C 10 km+ - 030°   030° 12 kt METAR LFSL 152230Z AUTO 03012KT 9999 -RA //////CB 17/15 Q1016
00:00
V
17 °C 10 km+ - 040°   040° 5 kt METAR LFSL 152200Z AUTO 04005KT 360V090 9999 RA //////CB 17/15 Q1017

15 mai 2022

Temps Code Temps Temp. Vue Des nuages Vent METAR/SPECI
23:30
V
17 °C 10 km+ - 320°   320° 7 kt METAR LFSL 152130Z AUTO 32007KT 9999 -TSRA //////CB 17/15 Q1018
23:00
I
17 °C 3,5 km 10.000 ft 240°   240° 8 18 kt METAR LFSL 152100Z AUTO 24008G18KT 160V300 3500 +TSRA BR FEW004/// SCT062/// BKN100/// ///CB 17/15 Q1019
22:30
V
20 °C 10 km+ - 320°   320° 3 kt METAR LFSL 152030Z AUTO 32003KT 290V020 9999 -RA VCTS ///CB 20/14 Q1016
22:00
V
22 °C 10 km+ - 330°   330° 13 kt METAR LFSL 152000Z AUTO 33013KT 300V360 9999 //////CB 22/14 Q1015 TEMPO VRB20G40KT -TSRA
21:30
I
23 °C 3,7 km - 200°   200° 2 kt METAR LFSL 151930Z AUTO 20002KT 9999 3700 VCTS ///CB 23/14 Q1014 TEMPO VRB20G40KT
21:00
V
24 °C 10 km+ - 130°   130° 3 kt METAR LFSL 151900Z AUTO 13003KT 9999 //////CB 24/15 Q1013 TEMPO VRB20G40KT -TSRA
20:30
V
25 °C 10 km+ - Var   Var 2 kt METAR LFSL 151830Z AUTO VRB02KT CAVOK 25/14 Q1013 TEMPO VRB20G40KT -TSRA SCT060CB
20:00
V
26 °C 10 km+ - 140°   140° 3 kt METAR LFSL 151800Z AUTO 14003KT CAVOK 26/14 Q1013 TEMPO VRB20G40KT -TSRA SCT060CB
19:30
V
28 °C 10 km+ - 110°   110° 7 kt METAR LFSL 151730Z AUTO 11007KT 090V150 CAVOK 28/13 Q1013 TEMPO VRB20G40KT -TSRA SCT060CB
19:00
V
28 °C 10 km+ - 100°   100° 7 kt METAR LFSL 151700Z AUTO 10007KT 070V130 CAVOK 28/13 Q1012 TEMPO VRB20G40KT -TSRA SCT060CB
18:30
V
28 °C 10 km+ - 100°   100° 6 kt METAR LFSL 151630Z AUTO 10006KT 070V140 CAVOK 28/13 Q1013 TEMPO VRB20G40KT -TSRA SCT060CB
18:00
V
29 °C 10 km+ - Var   Var 4 kt METAR LFSL 151600Z AUTO VRB04KT CAVOK 29/13 Q1013 TEMPO VRB20G40KT -TSRA SCT060CB
17:30
V
29 °C 10 km+ - Var   Var 3 kt METAR LFSL 151530Z AUTO VRB03KT CAVOK 29/13 Q1013 TEMPO VRB20G40KT -TSRA SCT060CB
17:00
V
29 °C 10 km+ - Var   Var 2 kt METAR LFSL 151500Z AUTO VRB02KT CAVOK 29/14 Q1013 TEMPO VRB20G40KT -TSRA SCT060CB
16:30
V
27 °C 10 km+ 11.000 ft Var   Var 2 kt METAR LFSL 151430Z AUTO VRB02KT 9999 FEW039/// BKN110/// //////TCU 27/15 Q1014 TEMPO VRB20G40KT -TSRA SCT060CB
16:00
V
27 °C 10 km+ - 250°   250° 5 kt METAR LFSL 151400Z AUTO 25005KT 170V290 9999 //////TCU 27/15 Q1014 TEMPO VRB20G40KT SCT060CB
Données plus anciennes

Télécharge notre application

Un accès facile à toute la météo aéronautique sur ton téléphone portable et ta tablette.
Avec de nombreuses fonctionnalités non disponibles sur le site Web, comme la prise en charge hors ligne et une liste personnelle d'aéroports.